createdAt,value
2023-02-01T00:00:32.229Z,95.53
2023-02-01T00:01:32.231Z,95.64
2023-02-01T00:02:32.240Z,95.74
2023-02-01T00:03:32.240Z,95.84
2023-02-01T00:04:32.185Z,95.84
2023-02-01T00:05:32.155Z,95.95
2023-02-01T00:06:32.158Z,95.95
2023-02-01T00:07:32.544Z,95.95
2023-02-01T00:08:32.292Z,96.05
2023-02-01T00:09:32.135Z,96.15
2023-02-01T00:10:32.109Z,96.30
2023-02-01T00:11:32.080Z,96.30
2023-02-01T00:12:32.077Z,96.30
2023-02-01T00:13:32.090Z,96.05
2023-02-01T00:14:32.077Z,95.95
2023-02-01T00:15:32.100Z,96.05
2023-02-01T00:16:32.069Z,96.05
2023-02-01T00:17:32.030Z,96.09
2023-02-01T00:18:32.036Z,96.30
2023-02-01T00:19:32.006Z,96.30
2023-02-01T00:20:32.140Z,96.41
2023-02-01T00:21:31.996Z,96.61
2023-02-01T00:22:31.973Z,96.82
2023-02-01T00:23:31.964Z,97.03
2023-02-01T00:24:31.957Z,97.03
2023-02-01T00:25:31.942Z,97.13
2023-02-01T00:26:31.976Z,97.24
2023-02-01T00:27:31.899Z,97.34
2023-02-01T00:28:31.914Z,97.65
2023-02-01T00:29:31.875Z,97.75
2023-02-01T00:30:31.905Z,97.75
2023-02-01T00:31:32.021Z,97.86
2023-02-01T00:32:31.866Z,97.75
2023-02-01T00:33:31.837Z,97.75
2023-02-01T00:34:31.828Z,97.86
2023-02-01T00:35:31.826Z,97.81
2023-02-01T00:36:31.814Z,97.96
2023-02-01T00:37:31.778Z,97.96
2023-02-01T00:38:31.795Z,97.91
2023-02-01T00:39:31.758Z,97.81
2023-02-01T00:40:31.745Z,97.81
2023-02-01T00:41:31.754Z,97.71
2023-02-01T00:42:31.753Z,97.71
2023-02-01T00:43:31.710Z,97.39
2023-02-01T00:44:31.714Z,97.29
2023-02-01T00:45:31.697Z,97.19
2023-02-01T00:46:31.775Z,96.98
2023-02-01T00:47:31.708Z,96.73
2023-02-01T00:48:31.670Z,96.62
2023-02-01T00:49:31.669Z,96.42
2023-02-01T00:50:31.694Z,96.31
2023-02-01T00:51:31.664Z,96.11
2023-02-01T00:52:31.624Z,96.21
2023-02-01T00:53:31.600Z,96.21
2023-02-01T00:54:31.607Z,96.31
2023-02-01T00:55:31.621Z,96.21
2023-02-01T00:56:31.979Z,96.21
2023-02-01T00:57:32.283Z,95.90
2023-02-01T00:58:32.286Z,95.90
2023-02-01T00:59:31.529Z,95.90
2023-02-01T01:00:31.552Z,95.90
2023-02-01T01:01:31.531Z,95.80
2023-02-01T01:02:31.610Z,95.80
2023-02-01T01:03:31.496Z,95.80
2023-02-01T01:04:31.475Z,95.75
2023-02-01T01:05:31.477Z,95.75
2023-02-01T01:06:31.472Z,95.90
2023-02-01T01:07:31.466Z,96.01
2023-02-01T01:08:31.574Z,96.11
2023-02-01T01:09:31.427Z,96.21
2023-02-01T01:10:31.414Z,96.42
2023-02-01T01:11:31.407Z,96.42
2023-02-01T01:12:31.399Z,96.52
2023-02-01T01:13:31.389Z,96.73
2023-02-01T01:14:31.387Z,96.83
2023-02-01T01:15:31.358Z,97.04
2023-02-01T01:16:31.632Z,97.14
2023-02-01T01:17:31.322Z,97.25
2023-02-01T01:18:31.366Z,97.35
2023-02-01T01:19:31.312Z,97.66
2023-02-01T01:20:31.311Z,97.87
2023-02-01T01:21:31.283Z,97.97
2023-02-01T01:22:31.323Z,98.08
2023-02-01T01:23:31.297Z,98.18
2023-02-01T01:24:31.266Z,98.39
2023-02-01T01:25:31.236Z,98.49
2023-02-01T01:26:31.343Z,98.60
2023-02-01T01:27:31.216Z,98.74
2023-02-01T01:28:31.248Z,98.80
2023-02-01T01:29:31.201Z,98.95
2023-02-01T01:30:31.228Z,98.95
2023-02-01T01:31:31.230Z,98.91
2023-02-01T01:32:31.192Z,98.70
2023-02-01T01:33:31.177Z,98.60
2023-02-01T01:34:31.203Z,98.60
2023-02-01T01:35:31.133Z,98.49
2023-02-01T01:36:31.408Z,98.49
2023-02-01T01:37:31.111Z,98.49
2023-02-01T01:38:31.103Z,98.39
2023-02-01T01:39:31.096Z,98.28
2023-02-01T01:40:31.088Z,97.87
2023-02-01T01:41:31.095Z,97.35
2023-02-01T01:42:31.074Z,97.35
2023-02-01T01:43:31.032Z,97.45
2023-02-01T01:44:31.056Z,97.56
2023-02-01T01:45:31.063Z,97.45
2023-02-01T01:46:31.080Z,97.45
2023-02-01T01:47:31.010Z,97.14
2023-02-01T01:48:30.983Z,96.94
2023-02-01T01:49:31.023Z,96.94
2023-02-01T01:50:30.975Z,96.94
2023-02-01T01:51:30.960Z,96.83
2023-02-01T01:52:31.077Z,97.04
2023-02-01T01:53:30.923Z,96.94
2023-02-01T01:54:30.920Z,96.94
2023-02-01T01:55:30.934Z,97.04
2023-02-01T01:56:30.926Z,97.14
2023-02-01T01:57:30.872Z,96.94
2023-02-01T01:58:30.904Z,96.73
2023-02-01T01:59:30.873Z,96.62
2023-02-01T02:00:30.884Z,96.48
2023-02-01T02:01:30.830Z,96.48
2023-02-01T02:02:30.811Z,96.27
2023-02-01T02:03:30.804Z,96.17
2023-02-01T02:04:30.798Z,95.86
2023-02-01T02:05:30.791Z,95.75
2023-02-01T02:06:30.763Z,95.54
2023-02-01T02:07:30.763Z,95.14
2023-02-01T02:08:30.757Z,95.03
2023-02-01T02:09:30.749Z,94.72
2023-02-01T02:10:30.744Z,94.72
2023-02-01T02:11:30.703Z,94.41
2023-02-01T02:12:30.716Z,93.79
2023-02-01T02:13:30.703Z,93.27
2023-02-01T02:14:30.752Z,92.96
2023-02-01T02:15:30.663Z,92.85
2023-02-01T02:16:30.706Z,92.61
2023-02-01T02:17:30.655Z,92.19
2023-02-01T02:18:30.643Z,91.99
2023-02-01T02:19:30.632Z,91.78
2023-02-01T02:20:30.643Z,91.57
2023-02-01T02:21:30.604Z,91.26
2023-02-01T02:22:30.620Z,90.74
2023-02-01T02:23:30.606Z,90.74
2023-02-01T02:24:30.583Z,90.64
2023-02-01T02:25:30.591Z,90.12
2023-02-01T02:26:30.655Z,90.53
2023-02-01T02:27:30.553Z,90.02
2023-02-01T02:28:30.532Z,89.92
2023-02-01T02:29:30.512Z,90.12
2023-02-01T02:30:31.292Z,90.53
2023-02-01T02:31:30.603Z,90.23
2023-02-01T02:32:30.498Z,90.12
2023-02-01T02:33:30.471Z,90.02
2023-02-01T02:34:30.474Z,90.44
2023-02-01T02:35:30.447Z,90.44
2023-02-01T02:36:30.442Z,89.92
2023-02-01T02:37:30.431Z,89.81
2023-02-01T02:38:30.424Z,89.77
2023-02-01T02:39:30.403Z,89.92
2023-02-01T02:40:30.398Z,89.77
2023-02-01T02:41:30.383Z,89.71
2023-02-01T02:42:30.396Z,89.46
2023-02-01T02:43:30.392Z,89.56
2023-02-01T02:44:30.340Z,89.36
2023-02-01T02:45:30.380Z,89.15
2023-02-01T02:46:30.351Z,89.15
2023-02-01T02:47:30.327Z,89.25
2023-02-01T02:48:30.319Z,89.15
2023-02-01T02:49:30.306Z,89.15
2023-02-01T02:50:30.286Z,89.36
2023-02-01T02:51:30.302Z,89.36
2023-02-01T02:52:30.272Z,89.25
2023-02-01T02:53:30.244Z,89.36
2023-02-01T02:54:30.264Z,89.56
2023-02-01T02:55:30.220Z,89.25
2023-02-01T02:56:30.231Z,88.94
2023-02-01T02:57:30.232Z,89.25
2023-02-01T02:58:30.234Z,89.46
2023-02-01T02:59:30.179Z,89.25
2023-02-01T03:00:30.200Z,89.15
2023-02-01T03:01:30.142Z,89.15
2023-02-01T03:02:30.177Z,89.25
2023-02-01T03:03:30.133Z,89.36
2023-02-01T03:04:30.158Z,89.50
2023-02-01T03:05:30.241Z,89.71
2023-02-01T03:06:30.100Z,89.71
2023-02-01T03:07:30.085Z,89.81
2023-02-01T03:08:30.082Z,90.12
2023-02-01T03:09:30.080Z,90.02
2023-02-01T03:10:30.092Z,90.02
2023-02-01T03:11:30.038Z,89.92
2023-02-01T03:12:30.052Z,89.67
2023-02-01T03:13:30.028Z,89.67
2023-02-01T03:14:30.035Z,89.56
2023-02-01T03:15:29.995Z,89.56
2023-02-01T03:16:30.095Z,89.56
2023-02-01T03:17:29.973Z,89.87
2023-02-01T03:18:29.989Z,89.87
2023-02-01T03:19:30.137Z,89.67
2023-02-01T03:20:29.957Z,89.46
2023-02-01T03:21:29.934Z,89.56
2023-02-01T03:22:29.943Z,89.15
2023-02-01T03:23:29.911Z,89.36
2023-02-01T03:24:29.920Z,89.46
2023-02-01T03:25:30.186Z,89.36
2023-02-01T03:26:29.977Z,89.25
2023-02-01T03:27:29.868Z,89.46
2023-02-01T03:28:29.883Z,89.67
2023-02-01T03:29:29.853Z,89.46
2023-02-01T03:30:29.849Z,89.46
2023-02-01T03:31:29.930Z,89.36
2023-02-01T03:32:29.828Z,89.56
2023-02-01T03:33:29.793Z,89.56
2023-02-01T03:34:29.809Z,89.67
2023-02-01T03:35:29.773Z,89.56
2023-02-01T03:36:29.787Z,89.77
2023-02-01T03:37:29.777Z,89.77
2023-02-01T03:38:29.752Z,90.02
2023-02-01T03:39:29.735Z,90.23
2023-02-01T03:40:29.758Z,90.23
2023-02-01T03:41:29.711Z,90.23
2023-02-01T03:42:29.711Z,90.23
2023-02-01T03:43:29.694Z,89.92
2023-02-01T03:44:29.686Z,89.87
2023-02-01T03:45:30.127Z,89.87
2023-02-01T03:46:29.690Z,89.77
2023-02-01T03:47:29.641Z,89.67
2023-02-01T03:48:29.649Z,89.77
2023-02-01T03:49:29.619Z,89.92
2023-02-01T03:50:29.633Z,89.77
2023-02-01T03:51:29.594Z,89.67
2023-02-01T03:52:29.602Z,89.77
2023-02-01T03:53:29.573Z,89.67
2023-02-01T03:54:29.854Z,89.56
2023-02-01T03:55:29.571Z,89.67
2023-02-01T03:56:29.553Z,89.56
2023-02-01T03:57:29.523Z,89.56
2023-02-01T03:58:29.533Z,89.46
2023-02-01T03:59:29.521Z,89.25
2023-02-01T04:00:29.507Z,89.36
2023-02-01T04:01:29.549Z,89.67
2023-02-01T04:02:29.520Z,89.87
2023-02-01T04:03:29.459Z,89.98
2023-02-01T04:04:29.465Z,89.77
2023-02-01T04:05:29.523Z,89.98
2023-02-01T04:06:29.426Z,89.67
2023-02-01T04:07:29.434Z,89.56
2023-02-01T04:08:29.405Z,89.67
2023-02-01T04:09:29.441Z,89.46
2023-02-01T04:10:29.394Z,89.04
2023-02-01T04:11:29.373Z,89.25
2023-02-01T04:12:29.357Z,89.36
2023-02-01T04:13:29.370Z,89.56
2023-02-01T04:14:29.330Z,89.56
2023-02-01T04:15:29.342Z,89.46
2023-02-01T04:16:29.322Z,89.46
2023-02-01T04:17:29.296Z,89.36
2023-02-01T04:18:29.295Z,88.84
2023-02-01T04:19:29.295Z,88.94
2023-02-01T04:20:29.314Z,88.90
2023-02-01T04:21:29.251Z,88.94
2023-02-01T04:22:29.252Z,88.94
2023-02-01T04:23:29.235Z,89.15
2023-02-01T04:24:29.246Z,89.01
2023-02-01T04:25:29.338Z,89.22
2023-02-01T04:26:29.220Z,89.36
2023-02-01T04:27:30.226Z,89.36
2023-02-01T04:28:29.185Z,89.25
2023-02-01T04:29:29.172Z,88.80
2023-02-01T04:30:29.208Z,88.90
2023-02-01T04:31:29.209Z,89.25
2023-02-01T04:32:29.149Z,89.25
2023-02-01T04:33:29.128Z,89.25
2023-02-01T04:34:29.104Z,89.15
2023-02-01T04:35:29.125Z,89.46
2023-02-01T04:36:29.182Z,89.36
2023-02-01T04:37:29.111Z,89.46
2023-02-01T04:38:29.081Z,89.46
2023-02-01T04:39:29.050Z,89.56
2023-02-01T04:40:29.054Z,89.46
2023-02-01T04:41:29.040Z,89.36
2023-02-01T04:42:29.023Z,89.56
2023-02-01T04:43:29.002Z,89.46
2023-02-01T04:44:29.017Z,89.56
2023-02-01T04:45:29.383Z,89.36
2023-02-01T04:46:29.028Z,89.67
2023-02-01T04:47:28.973Z,89.56
2023-02-01T04:48:28.971Z,89.32
2023-02-01T04:49:28.935Z,89.46
2023-02-01T04:50:28.978Z,89.67
2023-02-01T04:51:28.904Z,89.87
2023-02-01T04:52:28.932Z,89.98
2023-02-01T04:53:28.894Z,90.19
2023-02-01T04:54:28.905Z,90.19
2023-02-01T04:55:28.865Z,90.39
2023-02-01T04:56:28.874Z,90.50
2023-02-01T04:57:28.859Z,90.29
2023-02-01T04:58:28.856Z,90.29
2023-02-01T04:59:29.688Z,90.08
2023-02-01T05:00:28.812Z,90.19
2023-02-01T05:01:28.832Z,90.39
2023-02-01T05:02:28.821Z,90.60
2023-02-01T05:03:28.786Z,90.70
2023-02-01T05:04:28.798Z,90.70
2023-02-01T05:05:28.754Z,90.70
2023-02-01T05:06:28.761Z,90.70
2023-02-01T05:07:28.745Z,90.60
2023-02-01T05:08:28.764Z,90.39
2023-02-01T05:09:28.721Z,90.19
2023-02-01T05:10:28.718Z,90.08
2023-02-01T05:11:28.754Z,89.67
2023-02-01T05:12:28.688Z,89.62
2023-02-01T05:13:28.673Z,89.73
2023-02-01T05:14:28.667Z,89.94
2023-02-01T05:15:28.694Z,90.39
2023-02-01T05:16:28.646Z,90.19
2023-02-01T05:17:28.646Z,89.98
2023-02-01T05:18:28.658Z,89.77
2023-02-01T05:19:28.614Z,89.87
2023-02-01T05:20:28.608Z,90.19
2023-02-01T05:21:28.616Z,90.08
2023-02-01T05:22:28.603Z,90.19
2023-02-01T05:23:28.636Z,89.98
2023-02-01T05:24:28.568Z,89.98
2023-02-01T05:25:28.584Z,89.98
2023-02-01T05:26:28.598Z,89.98
2023-02-01T05:27:28.514Z,89.98
2023-02-01T05:28:28.536Z,90.19
2023-02-01T05:29:28.544Z,90.08
2023-02-01T05:30:28.486Z,90.08
2023-02-01T05:31:28.651Z,90.29
2023-02-01T05:32:28.511Z,90.29
2023-02-01T05:33:28.442Z,90.08
2023-02-01T05:34:28.875Z,90.29
2023-02-01T05:35:28.433Z,90.19
2023-02-01T05:36:28.431Z,90.39
2023-02-01T05:37:28.405Z,90.39
2023-02-01T05:38:28.422Z,90.70
2023-02-01T05:39:28.371Z,90.91
2023-02-01T05:40:28.370Z,90.91
2023-02-01T05:41:28.364Z,91.22
2023-02-01T05:42:28.353Z,90.91
2023-02-01T05:43:28.330Z,90.80
2023-02-01T05:44:28.347Z,90.70
2023-02-01T05:45:28.332Z,91.01
2023-02-01T05:46:28.373Z,91.01
2023-02-01T05:47:28.297Z,90.70
2023-02-01T05:48:28.285Z,90.60
2023-02-01T05:49:28.263Z,90.70
2023-02-01T05:50:28.263Z,90.80
2023-02-01T05:51:28.243Z,90.91
2023-02-01T05:52:28.243Z,90.80
2023-02-01T05:53:28.220Z,90.70
2023-02-01T05:54:28.533Z,90.70
2023-02-01T05:55:28.193Z,90.80
2023-02-01T05:56:28.201Z,91.01
2023-02-01T05:57:28.182Z,91.01
2023-02-01T05:58:34.397Z,91.22
2023-02-01T05:59:28.195Z,91.22
2023-02-01T06:00:28.365Z,91.11
2023-02-01T06:01:28.135Z,90.70
2023-02-01T06:02:28.155Z,90.80
2023-02-01T06:03:28.174Z,90.80
2023-02-01T06:04:28.095Z,90.80
2023-02-01T06:05:28.111Z,91.01
2023-02-01T06:06:28.069Z,90.91
2023-02-01T06:07:29.629Z,91.01
2023-02-01T06:08:28.052Z,91.01
2023-02-01T06:09:28.053Z,91.11
2023-02-01T06:10:28.044Z,91.32
2023-02-01T06:11:32.628Z,91.42
2023-02-01T06:12:29.003Z,91.32
2023-02-01T06:13:28.005Z,91.32
2023-02-01T06:14:28.121Z,91.01
2023-02-01T06:15:28.001Z,91.01
2023-02-01T06:16:28.016Z,91.11
2023-02-01T06:17:27.952Z,91.22
2023-02-01T06:18:27.944Z,91.22
2023-02-01T06:19:27.935Z,91.32
2023-02-01T06:20:27.904Z,91.53
2023-02-01T06:21:27.932Z,91.53
2023-02-01T06:22:27.893Z,91.63
2023-02-01T06:23:27.893Z,91.74
2023-02-01T06:24:27.880Z,91.63
2023-02-01T06:25:27.863Z,91.53
2023-02-01T06:26:27.882Z,91.22
2023-02-01T06:27:27.835Z,91.32
2023-02-01T06:28:27.821Z,91.22
2023-02-01T06:29:27.813Z,91.42
2023-02-01T06:30:27.812Z,91.53
2023-02-01T06:31:27.919Z,91.63
2023-02-01T06:32:27.793Z,91.53
2023-02-01T06:33:27.777Z,91.22
2023-02-01T06:34:27.844Z,91.22
2023-02-01T06:35:27.767Z,91.32
2023-02-01T06:36:27.749Z,91.32
2023-02-01T06:37:27.754Z,91.32
2023-02-01T06:38:27.729Z,91.42
2023-02-01T06:39:27.702Z,91.32
2023-02-01T06:40:27.713Z,91.32
2023-02-01T06:41:29.461Z,91.22
2023-02-01T06:42:27.672Z,91.01
2023-02-01T06:43:27.664Z,91.01
2023-02-01T06:44:27.643Z,91.01
2023-02-01T06:45:27.663Z,91.22
2023-02-01T06:46:27.636Z,91.22
2023-02-01T06:47:27.627Z,91.01
2023-02-01T06:48:27.612Z,90.80
2023-02-01T06:49:27.592Z,90.91
2023-02-01T06:50:27.598Z,91.01
2023-02-01T06:51:27.576Z,91.01
2023-02-01T06:52:27.549Z,91.01
2023-02-01T06:53:27.861Z,91.01
2023-02-01T06:54:27.867Z,91.11
2023-02-01T06:55:27.542Z,91.11
2023-02-01T06:56:27.515Z,91.22
2023-02-01T06:57:27.510Z,91.22
2023-02-01T06:58:27.491Z,91.11
2023-02-01T06:59:27.482Z,91.32
2023-02-01T07:00:27.532Z,91.32
2023-02-01T07:01:27.461Z,91.42
2023-02-01T07:02:27.448Z,91.22
2023-02-01T07:03:27.435Z,91.32
2023-02-01T07:04:27.422Z,91.32
2023-02-01T07:05:27.425Z,91.53
2023-02-01T07:06:27.410Z,91.42
2023-02-01T07:07:27.383Z,91.42
2023-02-01T07:08:27.370Z,91.53
2023-02-01T07:09:27.383Z,91.42
2023-02-01T07:10:27.362Z,91.32
2023-02-01T07:11:27.357Z,91.42
2023-02-01T07:12:27.325Z,91.42
2023-02-01T07:13:27.321Z,91.53
2023-02-01T07:14:27.380Z,91.74
2023-02-01T07:15:27.306Z,91.74
2023-02-01T07:16:27.385Z,91.84
2023-02-01T07:17:27.321Z,91.94
2023-02-01T07:18:27.261Z,91.84
2023-02-01T07:19:27.272Z,91.84
2023-02-01T07:20:27.234Z,91.94
2023-02-01T07:21:27.243Z,91.74
2023-02-01T07:22:27.232Z,91.74
2023-02-01T07:23:27.242Z,91.53
2023-02-01T07:24:27.190Z,91.63
2023-02-01T07:25:27.193Z,91.63
2023-02-01T07:26:27.264Z,91.32
2023-02-01T07:27:27.170Z,91.32
2023-02-01T07:28:27.169Z,91.53
2023-02-01T07:29:27.159Z,91.63
2023-02-01T07:30:27.138Z,91.63
2023-02-01T07:31:27.122Z,91.84
2023-02-01T07:32:27.115Z,91.84
2023-02-01T07:33:28.153Z,92.05
2023-02-01T07:34:27.098Z,92.15
2023-02-01T07:35:27.070Z,92.25
2023-02-01T07:36:27.083Z,92.25
2023-02-01T07:37:27.060Z,92.15
2023-02-01T07:38:27.043Z,92.15
2023-02-01T07:39:27.055Z,92.15
2023-02-01T07:40:27.022Z,92.15
2023-02-01T07:41:27.010Z,92.05
2023-02-01T07:42:27.002Z,92.05
2023-02-01T07:43:26.984Z,91.94
2023-02-01T07:44:26.982Z,91.94
2023-02-01T07:45:27.066Z,92.05
2023-02-01T07:46:26.950Z,91.94
2023-02-01T07:47:26.951Z,92.05
2023-02-01T07:48:26.916Z,91.94
2023-02-01T07:49:26.942Z,91.84
2023-02-01T07:50:26.914Z,91.94
2023-02-01T07:51:26.900Z,91.94
2023-02-01T07:52:26.871Z,92.05
2023-02-01T07:53:26.871Z,92.15
2023-02-01T07:54:27.010Z,92.05
2023-02-01T07:55:26.840Z,92.15
2023-02-01T07:56:26.839Z,92.15
2023-02-01T07:57:26.831Z,92.15
2023-02-01T07:58:26.821Z,92.15
2023-02-01T07:59:26.815Z,92.25
2023-02-01T08:00:26.814Z,92.36
2023-02-01T08:01:26.873Z,92.36
2023-02-01T08:02:26.790Z,92.46
2023-02-01T08:03:27.112Z,92.46
2023-02-01T08:04:26.738Z,92.57
2023-02-01T08:05:26.752Z,92.57
2023-02-01T08:06:26.717Z,92.67
2023-02-01T08:07:26.755Z,92.77
2023-02-01T08:08:26.712Z,92.67
2023-02-01T08:09:26.700Z,92.67
2023-02-01T08:10:26.805Z,92.77
2023-02-01T08:11:26.677Z,92.67
2023-02-01T08:12:26.647Z,92.42
2023-02-01T08:13:26.660Z,92.42
2023-02-01T08:14:26.631Z,92.42
2023-02-01T08:15:26.620Z,92.42
2023-02-01T08:16:26.653Z,92.42
2023-02-01T08:17:26.600Z,92.32
2023-02-01T08:18:26.591Z,92.32
2023-02-01T08:19:26.560Z,92.11
2023-02-01T08:20:26.666Z,92.11
2023-02-01T08:21:26.553Z,92.21
2023-02-01T08:22:26.562Z,92.21
2023-02-01T08:23:26.716Z,92.21
2023-02-01T08:24:26.525Z,92.32
2023-02-01T08:25:26.498Z,92.42
2023-02-01T08:26:26.544Z,92.32
2023-02-01T08:27:26.493Z,92.32
2023-02-01T08:28:26.483Z,92.32
2023-02-01T08:29:26.471Z,92.42
2023-02-01T08:30:26.494Z,92.32
2023-02-01T08:31:26.475Z,92.52
2023-02-01T08:32:26.981Z,92.52
2023-02-01T08:33:26.411Z,92.52
2023-02-01T08:34:26.417Z,92.32
2023-02-01T08:35:41.442Z,92.32
2023-02-01T08:36:27.380Z,92.32
2023-02-01T08:37:26.380Z,92.21
2023-02-01T08:38:26.365Z,92.42
2023-02-01T08:39:26.357Z,92.32
2023-02-01T08:40:26.401Z,92.42
2023-02-01T08:41:26.321Z,92.42
2023-02-01T08:42:26.324Z,92.32
2023-02-01T08:43:26.745Z,92.42
2023-02-01T08:44:26.303Z,92.42
2023-02-01T08:45:26.285Z,92.52
2023-02-01T08:46:26.381Z,92.42
2023-02-01T08:47:26.283Z,92.63
2023-02-01T08:48:26.259Z,92.72
2023-02-01T08:49:26.440Z,92.52
2023-02-01T08:50:26.694Z,92.52
2023-02-01T08:51:26.220Z,92.42
2023-02-01T08:52:26.220Z,92.32
2023-02-01T08:53:26.190Z,92.42
2023-02-01T08:54:26.201Z,92.42
2023-02-01T08:55:26.173Z,92.42
2023-02-01T08:56:26.230Z,92.42
2023-02-01T08:57:26.140Z,92.32
2023-02-01T08:58:26.132Z,92.32
2023-02-01T08:59:27.827Z,92.42
2023-02-01T09:00:26.391Z,92.63
2023-02-01T09:01:26.178Z,92.63
2023-02-01T09:02:26.113Z,92.63
2023-02-01T09:03:27.003Z,92.72
2023-02-01T09:04:26.072Z,92.72
2023-02-01T09:05:26.073Z,92.63
2023-02-01T09:06:26.059Z,92.63
2023-02-01T09:07:26.043Z,92.52
2023-02-01T09:08:26.072Z,92.72
2023-02-01T09:09:26.008Z,92.72
2023-02-01T09:10:34.713Z,92.83
2023-02-01T09:11:26.993Z,92.72
2023-02-01T09:12:26.010Z,92.83
2023-02-01T09:13:25.970Z,92.83
2023-02-01T09:14:25.973Z,92.83
2023-02-01T09:15:26.032Z,93.04
2023-02-01T09:16:25.951Z,92.93
2023-02-01T09:17:25.929Z,92.72
2023-02-01T09:18:26.360Z,92.52
2023-02-01T09:19:27.202Z,92.83
2023-02-01T09:20:26.296Z,92.93
2023-02-01T09:21:25.877Z,92.83
2023-02-01T09:22:25.884Z,92.83
2023-02-01T09:23:27.321Z,92.83
2023-02-01T09:24:25.845Z,92.72
2023-02-01T09:25:25.871Z,92.72
2023-02-01T09:26:31.571Z,92.83
2023-02-01T09:27:26.797Z,92.42
2023-02-01T09:28:25.809Z,92.32
2023-02-01T09:29:25.823Z,92.32
2023-02-01T09:30:26.117Z,92.42
2023-02-01T09:31:25.834Z,92.42
2023-02-01T09:32:25.849Z,92.52
2023-02-01T09:33:25.762Z,92.52
2023-02-01T09:34:25.728Z,92.63
2023-02-01T09:35:25.723Z,92.63
2023-02-01T09:36:25.699Z,92.42
2023-02-01T09:37:25.684Z,92.52
2023-02-01T09:38:25.701Z,92.72
2023-02-01T09:39:25.669Z,92.63
2023-02-01T09:40:26.247Z,92.52
2023-02-01T09:41:32.878Z,92.21
2023-02-01T09:42:26.006Z,92.07
2023-02-01T09:43:25.924Z,92.00
2023-02-01T09:44:30.015Z,92.21
2023-02-01T09:45:26.647Z,92.07
2023-02-01T09:46:25.874Z,91.96
2023-02-01T09:47:25.894Z,91.86
2023-02-01T09:48:25.955Z,91.65
2023-02-01T09:49:25.591Z,91.75
2023-02-01T09:50:26.044Z,91.65
2023-02-01T09:51:25.566Z,91.65
2023-02-01T09:52:25.576Z,91.86
2023-02-01T09:53:25.534Z,91.75
2023-02-01T09:54:25.538Z,91.75
2023-02-01T09:55:25.513Z,91.65
2023-02-01T09:56:26.036Z,91.86
2023-02-01T09:57:25.489Z,91.65
2023-02-01T09:58:25.508Z,91.44
2023-02-01T09:59:25.465Z,91.44
2023-02-01T10:00:25.986Z,91.44
2023-02-01T10:01:25.516Z,91.34
2023-02-01T10:02:25.438Z,91.24
2023-02-01T10:03:25.422Z,91.34
2023-02-01T10:04:25.433Z,91.34
2023-02-01T10:05:25.386Z,91.44
2023-02-01T10:06:25.375Z,91.09
2023-02-01T10:07:25.365Z,91.20
2023-02-01T10:08:25.368Z,90.99
2023-02-01T10:09:25.356Z,91.20
2023-02-01T10:10:25.845Z,90.99
2023-02-01T10:11:25.339Z,90.68
2023-02-01T10:12:25.386Z,90.68
2023-02-01T10:13:25.294Z,90.58
2023-02-01T10:14:25.353Z,90.89
2023-02-01T10:15:25.840Z,90.47
2023-02-01T10:16:25.418Z,90.58
2023-02-01T10:17:25.267Z,90.58
2023-02-01T10:18:25.276Z,90.37
2023-02-01T10:19:25.227Z,90.47
2023-02-01T10:20:25.836Z,90.47
2023-02-01T10:21:25.207Z,90.43
2023-02-01T10:22:41.025Z,90.53
2023-02-01T10:23:33.943Z,90.53
2023-02-01T10:24:26.337Z,90.43
2023-02-01T10:25:25.168Z,90.64
2023-02-01T10:26:25.171Z,90.64
2023-02-01T10:27:25.160Z,90.12
2023-02-01T10:28:25.146Z,90.43
2023-02-01T10:29:25.114Z,90.53
2023-02-01T10:30:25.592Z,90.74
2023-02-01T10:31:25.163Z,91.05
2023-02-01T10:32:25.877Z,90.74
2023-02-01T10:33:25.083Z,90.74
2023-02-01T10:34:25.081Z,90.84
2023-02-01T10:35:25.062Z,90.95
2023-02-01T10:36:25.181Z,91.05
2023-02-01T10:37:25.034Z,91.05
2023-02-01T10:38:25.018Z,91.36
2023-02-01T10:39:25.030Z,91.36
2023-02-01T10:40:25.437Z,91.26
2023-02-01T10:41:24.975Z,91.26
2023-02-01T10:42:24.974Z,91.36
2023-02-01T10:43:24.994Z,91.46
2023-02-01T10:44:24.991Z,91.36
2023-02-01T10:45:24.953Z,91.56
2023-02-01T10:46:24.992Z,91.50
2023-02-01T10:47:24.930Z,91.50
2023-02-01T10:48:24.925Z,91.40
2023-02-01T10:49:24.917Z,91.50
2023-02-01T10:50:25.224Z,91.56
2023-02-01T10:51:24.873Z,91.36
2023-02-01T10:52:25.045Z,91.30
2023-02-01T10:53:24.859Z,91.26
2023-02-01T10:54:24.857Z,91.46
2023-02-01T10:55:24.822Z,91.56
2023-02-01T10:56:24.831Z,91.36
2023-02-01T10:57:24.800Z,91.36
2023-02-01T10:58:24.806Z,91.36
2023-02-01T10:59:24.775Z,91.40
2023-02-01T11:00:24.975Z,91.67
2023-02-01T11:01:24.795Z,91.71
2023-02-01T11:02:24.754Z,91.77
2023-02-01T11:03:24.755Z,91.71
2023-02-01T11:04:24.736Z,91.50
2023-02-01T11:05:24.736Z,91.61
2023-02-01T11:06:24.710Z,91.67
2023-02-01T11:07:24.677Z,91.56
2023-02-01T11:08:24.699Z,91.77
2023-02-01T11:09:24.696Z,91.98
2023-02-01T11:10:25.101Z,91.88
2023-02-01T11:11:24.672Z,91.77
2023-02-01T11:12:24.796Z,91.56
2023-02-01T11:13:24.719Z,91.56
2023-02-01T11:14:24.694Z,91.36
2023-02-01T11:15:24.921Z,91.16
2023-02-01T11:16:24.679Z,91.20
2023-02-01T11:17:24.627Z,91.26
2023-02-01T11:18:24.601Z,91.26
2023-02-01T11:19:24.585Z,91.26
2023-02-01T11:20:24.608Z,91.46
2023-02-01T11:21:24.579Z,91.56
2023-02-01T11:22:24.547Z,91.36
2023-02-01T11:23:24.529Z,91.36
2023-02-01T11:24:24.705Z,91.36
2023-02-01T11:25:24.982Z,91.26
2023-02-01T11:26:24.572Z,91.36
2023-02-01T11:27:27.619Z,91.46
2023-02-01T11:28:24.458Z,91.67
2023-02-01T11:29:24.451Z,91.46
2023-02-01T11:30:24.496Z,91.36
2023-02-01T11:31:24.479Z,91.26
2023-02-01T11:32:24.418Z,91.36
2023-02-01T11:33:24.383Z,91.50
2023-02-01T11:34:24.395Z,91.71
2023-02-01T11:35:24.694Z,91.82
2023-02-01T11:36:24.383Z,91.92
2023-02-01T11:37:24.366Z,91.82
2023-02-01T11:38:24.360Z,91.40
2023-02-01T11:39:24.327Z,91.61
2023-02-01T11:40:24.584Z,91.71
2023-02-01T11:41:24.335Z,92.02
2023-02-01T11:42:24.327Z,92.13
2023-02-01T11:43:31.350Z,92.02
2023-02-01T11:44:24.279Z,92.13
2023-02-01T11:45:24.265Z,92.13
2023-02-01T11:46:24.289Z,92.44
2023-02-01T11:47:24.399Z,92.64
2023-02-01T11:48:27.562Z,92.95
2023-02-01T11:49:24.203Z,93.37
2023-02-01T11:50:24.492Z,93.68
2023-02-01T11:51:24.342Z,94.09
2023-02-01T11:52:24.224Z,94.29
2023-02-01T11:53:24.167Z,94.71
2023-02-01T11:54:24.170Z,94.92
2023-02-01T11:55:24.147Z,95.17
2023-02-01T11:56:24.136Z,95.68
2023-02-01T11:57:24.443Z,96.09
2023-02-01T11:58:24.159Z,96.09
2023-02-01T11:59:24.110Z,96.41
2023-02-01T12:00:24.482Z,96.82
2023-02-01T12:01:24.091Z,97.23
2023-02-01T12:02:24.086Z,97.07
2023-02-01T12:03:24.138Z,97.07
2023-02-01T12:04:24.098Z,97.17
2023-02-01T12:05:24.033Z,97.59
2023-02-01T12:06:24.023Z,97.79
2023-02-01T12:07:24.019Z,98.10
2023-02-01T12:08:24.007Z,98.31
2023-02-01T12:09:23.984Z,98.41
2023-02-01T12:10:24.358Z,98.72
2023-02-01T12:11:23.983Z,99.24
2023-02-01T12:12:23.959Z,98.93
2023-02-01T12:13:23.947Z,99.14
2023-02-01T12:14:23.950Z,99.65
2023-02-01T12:15:23.940Z,99.55
2023-02-01T12:16:24.036Z,99.76
2023-02-01T12:17:23.907Z,99.99
2023-02-01T12:18:23.891Z,99.99
2023-02-01T12:19:23.867Z,99.99
2023-02-01T12:20:24.093Z,99.99
2023-02-01T12:21:23.875Z,99.99
2023-02-01T12:22:23.883Z,99.99
2023-02-01T12:23:23.825Z,99.99
2023-02-01T12:24:23.824Z,99.99
2023-02-01T12:25:23.826Z,99.99
2023-02-01T12:26:23.831Z,99.99
2023-02-01T12:27:23.803Z,99.99
2023-02-01T12:28:23.777Z,99.99
2023-02-01T12:29:23.764Z,99.99
2023-02-01T12:30:24.161Z,99.99
2023-02-01T12:31:23.780Z,99.99
2023-02-01T12:32:23.744Z,99.99
2023-02-01T12:33:23.738Z,99.99
2023-02-01T12:34:23.704Z,99.99
2023-02-01T12:35:23.703Z,99.99
2023-02-01T12:36:23.685Z,99.99
2023-02-01T12:37:23.693Z,99.99
2023-02-01T12:38:23.665Z,99.99
2023-02-01T12:39:23.652Z,99.99
2023-02-01T12:40:23.988Z,99.99
2023-02-01T12:41:23.720Z,99.99
2023-02-01T12:42:23.603Z,99.99
2023-02-01T12:43:23.647Z,99.99
2023-02-01T12:44:23.594Z,99.99
2023-02-01T12:45:23.583Z,99.99
2023-02-01T12:46:23.961Z,99.99
2023-02-01T12:47:23.594Z,99.99
2023-02-01T12:48:23.559Z,99.99
2023-02-01T12:49:23.552Z,99.99
2023-02-01T12:50:23.838Z,99.99
2023-02-01T12:51:23.520Z,99.99
2023-02-01T12:52:23.513Z,99.99